Time;durP1;ratioP1;P1;durP2;ratioP2;P2;SDS_P1;SDS_P2;PMS_P1;PMS_P2;Temp;Humidity;BMP_temperature;BMP_pressure;BME280_temperature;BME280_humidity;BME280_pressure;Samples;Min_cycle;Max_cycle;Signal;HPM_P1;HPM_P2
2022/03/13 00:02:16;;;;;;;29.60;26.88;;;3.50;13.40;;;;;;4954356;28;20182;-72
2022/03/13 00:04:51;;;;;;;30.55;27.42;;;3.40;13.60;;;;;;4969156;28;20189;-71
2022/03/13 00:07:27;;;;;;;30.40;27.15;;;3.40;13.50;;;;;;4954032;29;20173;-71
2022/03/13 00:09:53;;;;;;;30.27;27.10;;;3.40;13.90;;;;;;4954006;28;20216;-71
2022/03/13 00:12:29;;;;;;;28.03;25.33;;;3.40;13.90;;;;;;4952974;29;20232;-72
2022/03/13 00:14:56;;;;;;;29.27;26.20;;;3.40;13.60;;;;;;4954237;29;20201;-72
2022/03/13 00:17:27;;;;;;;31.65;26.23;;;3.40;13.70;;;;;;4953941;29;20257;-72
2022/03/13 00:19:55;;;;;;;28.05;25.17;;;3.40;13.90;;;;;;4954183;28;20225;-73
2022/03/13 00:22:21;;;;;;;25.60;23.45;;;3.30;14.20;;;;;;4954095;29;20198;-72
2022/03/13 00:24:47;;;;;;;28.73;25.80;;;3.30;14.20;;;;;;4953995;28;20213;-73
2022/03/13 00:27:12;;;;;;;26.53;24.23;;;3.20;14.20;;;;;;4953727;29;20186;-75
2022/03/13 00:29:40;;;;;;;27.23;25.03;;;3.20;14.50;;;;;;4953864;29;20209;-73
2022/03/13 00:32:06;;;;;;;27.88;25.25;;;3.20;14.60;;;;;;4954017;28;20181;-72
2022/03/13 00:34:31;;;;;;;30.00;25.13;;;3.10;14.70;;;;;;4954039;28;20202;-71
2022/03/13 00:36:57;;;;;;;24.93;22.73;;;3.00;14.60;;;;;;4956559;28;20952;-72
2022/03/13 00:39:22;;;;;;;24.80;22.60;;;2.90;14.60;;;;;;4957917;29;20244;-73
2022/03/13 00:41:48;;;;;;;24.80;22.60;;;2.80;14.50;;;;;;4958033;29;20208;-72
2022/03/13 00:44:14;;;;;;;24.77;22.50;;;2.80;14.80;;;;;;4957947;29;20178;-72
2022/03/13 00:46:39;;;;;;;24.97;22.77;;;2.80;14.50;;;;;;4957445;28;20182;-72
2022/03/13 00:49:06;;;;;;;25.97;23.40;;;2.70;14.60;;;;;;4957623;29;20197;-71
2022/03/13 00:51:31;;;;;;;26.23;23.67;;;2.70;14.50;;;;;;4957602;29;20192;-71
2022/03/13 00:53:57;;;;;;;31.13;23.53;;;2.70;14.80;;;;;;4957311;28;20244;-72
2022/03/13 00:56:22;;;;;;;24.80;22.50;;;2.70;14.40;;;;;;4957464;28;20201;-71
2022/03/13 00:58:48;;;;;;;25.63;23.27;;;2.60;14.80;;;;;;4957343;29;20604;-71
2022/03/13 01:01:13;;;;;;;25.07;23.00;;;2.70;14.90;;;;;;4957515;29;20185;-72
2022/03/13 01:03:40;;;;;;;24.77;22.57;;;2.60;14.80;;;;;;4957408;29;20239;-72
2022/03/13 01:06:08;;;;;;;27.83;25.17;;;2.50;14.80;;;;;;4957398;29;20314;-72
2022/03/13 01:08:34;;;;;;;24.50;22.25;;;2.40;15.00;;;;;;4956851;28;20601;-72
2022/03/13 01:11:01;;;;;;;23.00;20.98;;;2.30;15.20;;;;;;4957231;28;20182;-71
2022/03/13 01:13:27;;;;;;;25.77;23.45;;;2.30;15.00;;;;;;4957531;28;20686;-71
2022/03/13 01:16:14;;;;;;;24.38;22.20;;;2.40;15.00;;;;;;4957531;28;20268;-72
2022/03/13 01:18:48;;;;;;;24.20;22.05;;;2.30;14.80;;;;;;4957184;28;20194;-73
2022/03/13 01:21:14;;;;;;;24.90;22.48;;;2.30;15.40;;;;;;4957217;29;20175;-73
2022/03/13 01:23:40;;;;;;;26.00;23.45;;;2.40;14.60;;;;;;4957088;28;20177;-73
2022/03/13 01:26:36;;;;;;;24.45;22.27;;;2.30;14.20;;;;;;4957180;29;20181;-73
2022/03/13 01:29:05;;;;;;;22.98;21.13;;;2.30;14.20;;;;;;4956989;28;20220;-72
2022/03/13 01:31:33;;;;;;;24.52;22.20;;;2.30;14.20;;;;;;4956929;29;20189;-72
2022/03/13 01:34:00;;;;;;;25.15;23.10;;;2.30;14.00;;;;;;4956820;28;20202;-72
2022/03/13 01:36:27;;;;;;;23.75;21.73;;;2.20;14.10;;;;;;4956507;28;20185;-77
2022/03/13 01:38:54;;;;;;;25.23;22.70;;;2.20;14.00;;;;;;4956625;28;20201;-73
2022/03/13 01:41:22;;;;;;;24.08;21.52;;;2.10;13.70;;;;;;4956825;28;20225;-73
2022/03/13 01:43:48;;;;;;;29.17;22.95;;;2.10;14.00;;;;;;4956754;28;20174;-71
2022/03/13 01:46:14;;;;;;;25.60;23.30;;;2.30;13.40;;;;;;4956477;28;20796;-72
2022/03/13 01:48:56;;;;;;;23.53;21.13;;;2.30;13.10;;;;;;4956403;28;20198;-72
2022/03/13 01:51:23;;;;;;;23.40;21.48;;;2.40;13.10;;;;;;4956673;28;20644;-72
2022/03/13 01:53:53;;;;;;;21.58;19.42;;;2.30;13.10;;;;;;4956234;28;20273;-74
2022/03/13 01:56:20;;;;;;;22.63;20.60;;;2.30;13.20;;;;;;4956424;28;20174;-72
2022/03/13 01:58:50;;;;;;;21.55;19.55;;;2.20;13.40;;;;;;4956253;28;20200;-72
2022/03/13 02:01:17;;;;;;;23.05;20.88;;;2.10;13.40;;;;;;4956292;29;20177;-72
2022/03/13 02:03:43;;;;;;;21.95;20.10;;;2.10;13.70;;;;;;4956499;28;20604;-73
2022/03/13 02:06:09;;;;;;;22.52;20.58;;;2.20;13.40;;;;;;4956264;28;20311;-74
2022/03/13 02:08:37;;;;;;;22.00;20.30;;;2.20;13.30;;;;;;4956017;29;20296;-72
2022/03/13 02:11:04;;;;;;;23.50;21.50;;;2.20;13.40;;;;;;4956226;28;20210;-72
2022/03/13 02:13:34;;;;;;;22.23;20.40;;;2.20;13.70;;;;;;4956078;28;20205;-72
2022/03/13 02:16:00;;;;;;;21.83;20.00;;;2.10;14.00;;;;;;4956112;29;20754;-72
2022/03/13 02:18:26;;;;;;;24.35;21.92;;;2.00;14.10;;;;;;4970606;28;20211;-72
2022/03/13 02:20:52;;;;;;;22.87;21.00;;;2.00;14.30;;;;;;4956064;28;20559;-72
2022/03/13 02:23:26;;;;;;;25.10;22.77;;;1.90;14.10;;;;;;4956003;29;20236;-71
2022/03/13 02:26:00;;;;;;;24.77;22.27;;;1.80;14.90;;;;;;4956047;29;20203;-72
2022/03/13 02:28:30;;;;;;;22.45;20.60;;;1.80;14.70;;;;;;4970382;28;20287;-73
2022/03/13 02:31:12;;;;;;;24.08;22.17;;;1.80;15.10;;;;;;4955848;28;20166;-73
2022/03/13 02:33:38;;;;;;;26.35;23.67;;;1.70;16.00;;;;;;4955780;28;20296;-71
2022/03/13 02:36:12;;;;;;;24.02;21.58;;;1.70;16.30;;;;;;4955645;28;20695;-72
2022/03/13 02:38:38;;;;;;;23.63;21.27;;;1.70;16.10;;;;;;4955556;28;20203;-71
2022/03/13 02:41:04;;;;;;;23.95;21.45;;;1.70;16.30;;;;;;4955683;29;20655;-72
2022/03/13 02:43:30;;;;;;;26.42;23.33;;;1.70;16.00;;;;;;4955652;28;20543;-72
2022/03/13 02:45:56;;;;;;;22.33;20.33;;;1.80;15.70;;;;;;4955571;28;20296;-73
2022/03/13 02:48:21;;;;;;;22.30;20.60;;;1.70;15.80;;;;;;4955282;29;20227;-73
2022/03/13 02:50:47;;;;;;;23.93;21.43;;;1.70;15.90;;;;;;4955360;29;20416;-72
2022/03/13 02:53:15;;;;;;;25.30;22.87;;;1.80;15.60;;;;;;4955427;28;20189;-72
2022/03/13 02:55:41;;;;;;;21.80;20.23;;;1.80;15.80;;;;;;4955367;28;20551;-71
2022/03/13 02:58:09;;;;;;;21.13;19.47;;;1.70;15.60;;;;;;4954553;28;20289;-71
2022/03/13 03:00:45;;;;;;;23.42;21.30;;;1.60;15.70;;;;;;4955201;28;20453;-71
2022/03/13 03:03:16;;;;;;;23.02;20.83;;;1.70;15.80;;;;;;4955296;29;20207;-72
2022/03/13 03:05:42;;;;;;;22.70;20.83;;;1.70;16.00;;;;;;4955133;28;20593;-71
2022/03/13 03:08:08;;;;;;;20.20;18.40;;;1.70;15.80;;;;;;4954992;28;20240;-71
2022/03/13 03:10:34;;;;;;;26.10;21.23;;;1.80;15.80;;;;;;4955116;28;20177;-71
2022/03/13 03:13:00;;;;;;;20.92;19.20;;;1.70;15.30;;;;;;4955102;29;20227;-71
2022/03/13 03:15:26;;;;;;;20.30;18.57;;;1.70;15.20;;;;;;4969807;28;20240;-71
2022/03/13 03:17:52;;;;;;;22.77;20.50;;;1.60;15.20;;;;;;4954695;28;20198;-71
2022/03/13 03:20:18;;;;;;;20.85;18.38;;;1.60;15.00;;;;;;4954864;29;20168;-71
2022/03/13 03:22:44;;;;;;;20.07;18.20;;;1.50;14.80;;;;;;4954904;29;20243;-71
2022/03/13 03:25:09;;;;;;;20.97;19.20;;;1.50;14.80;;;;;;4954887;28;20423;-73
2022/03/13 03:27:35;;;;;;;20.17;18.47;;;1.40;14.80;;;;;;4954659;28;20656;-72
2022/03/13 03:30:01;;;;;;;19.43;17.90;;;1.40;15.00;;;;;;4954788;28;20421;-73
2022/03/13 03:32:27;;;;;;;20.95;19.45;;;1.40;15.20;;;;;;4954590;28;20199;-72
2022/03/13 03:34:53;;;;;;;21.97;20.13;;;1.30;15.30;;;;;;4954493;28;20209;-72
2022/03/13 03:37:19;;;;;;;20.25;18.55;;;1.30;15.90;;;;;;4954375;28;20259;-71
2022/03/13 03:39:44;;;;;;;20.63;19.10;;;1.30;15.80;;;;;;4954513;28;20282;-71
2022/03/13 03:42:10;;;;;;;21.90;19.87;;;1.00;17.00;;;;;;4954608;28;20187;-71
2022/03/13 03:44:35;;;;;;;25.27;22.83;;;0.90;17.50;;;;;;4954521;29;20179;-72
2022/03/13 03:47:01;;;;;;;20.83;19.03;;;1.00;17.60;;;;;;4954211;29;20284;-73
2022/03/13 03:49:27;;;;;;;24.03;21.70;;;1.00;17.60;;;;;;4954334;29;20229;-71
2022/03/13 03:51:53;;;;;;;26.63;22.17;;;1.00;18.40;;;;;;4954507;28;20265;-72
2022/03/13 03:54:19;;;;;;;23.17;20.90;;;1.10;18.40;;;;;;4954538;28;20523;-71
2022/03/13 03:56:44;;;;;;;24.53;21.07;;;1.20;18.30;;;;;;4954314;28;20418;-71
2022/03/13 03:59:10;;;;;;;24.63;22.33;;;1.20;18.30;;;;;;4954468;28;20446;-72
2022/03/13 04:01:41;;;;;;;23.20;21.03;;;1.20;18.20;;;;;;4954351;29;20186;-73
2022/03/13 04:04:08;;;;;;;23.15;20.70;;;1.30;18.30;;;;;;4954410;29;20829;-72
2022/03/13 04:06:38;;;;;;;21.88;19.73;;;1.30;17.80;;;;;;4954011;29;20185;-72
2022/03/13 04:09:07;;;;;;;25.15;21.52;;;1.30;17.80;;;;;;4954044;28;20243;-74
2022/03/13 04:11:33;;;;;;;20.35;18.70;;;1.20;17.70;;;;;;4968274;28;20188;-72
2022/03/13 04:14:00;;;;;;;19.85;18.25;;;1.20;17.10;;;;;;4954026;29;20614;-71
2022/03/13 04:16:26;;;;;;;20.42;18.73;;;1.10;16.80;;;;;;4953764;28;20177;-73
2022/03/13 04:18:52;;;;;;;21.13;19.13;;;1.00;17.00;;;;;;4953886;29;20296;-71
2022/03/13 04:21:17;;;;;;;20.03;18.53;;;1.00;17.10;;;;;;4954010;28;20253;-71
2022/03/13 04:23:43;;;;;;;20.60;18.40;;;1.00;16.60;;;;;;4953978;28;20183;-71
2022/03/13 04:26:09;;;;;;;19.17;17.60;;;1.00;15.70;;;;;;4953959;28;20923;-71
2022/03/13 04:28:35;;;;;;;18.67;17.27;;;1.10;15.30;;;;;;4953776;29;20805;-69
2022/03/13 04:31:00;;;;;;;20.60;18.80;;;1.10;15.50;;;;;;4953947;29;20185;-71
2022/03/13 04:33:33;;;;;;;20.00;18.03;;;1.10;15.50;;;;;;4953783;28;20234;-69
2022/03/13 04:36:00;;;;;;;22.05;19.05;;;1.10;15.60;;;;;;4953868;28;20182;-71
2022/03/13 04:38:27;;;;;;;18.85;17.40;;;1.00;15.90;;;;;;4968353;28;20226;-69
2022/03/13 04:40:54;;;;;;;19.40;17.60;;;1.00;15.90;;;;;;4953658;28;20259;-69
2022/03/13 04:43:21;;;;;;;19.00;17.50;;;1.10;15.80;;;;;;4953845;29;20309;-69
2022/03/13 04:45:48;;;;;;;19.23;17.90;;;1.10;15.70;;;;;;4953720;28;20177;-70
2022/03/13 04:48:15;;;;;;;21.27;19.00;;;1.00;15.50;;;;;;4953435;29;20256;-69
2022/03/13 04:50:41;;;;;;;20.63;18.92;;;0.80;16.60;;;;;;4960540;28;20186;-69
2022/03/13 04:53:07;;;;;;;20.45;18.60;;;0.80;17.10;;;;;;4945402;28;20227;-69
2022/03/13 04:55:32;;;;;;;18.77;17.33;;;0.80;17.50;;;;;;4968391;28;20320;-68
2022/03/13 04:57:59;;;;;;;20.65;18.90;;;0.80;17.50;;;;;;4935464;29;20320;-70
2022/03/13 05:00:27;;;;;;;21.57;19.27;;;0.80;17.50;;;;;;4933515;29;20622;-69
2022/03/13 05:02:54;;;;;;;20.90;19.23;;;0.70;17.40;;;;;;4934691;29;20177;-69
2022/03/13 05:05:20;;;;;;;20.58;18.77;;;0.70;17.40;;;;;;4934539;29;20207;-69
2022/03/13 05:07:46;;;;;;;23.77;21.67;;;0.80;17.90;;;;;;4933973;29;20213;-69
2022/03/13 05:10:12;;;;;;;22.07;19.73;;;0.60;19.70;;;;;;4934908;29;20221;-68
2022/03/13 05:12:37;;;;;;;22.33;20.17;;;0.40;20.80;;;;;;4934389;29;20434;-72
2022/03/13 05:15:03;;;;;;;24.77;22.30;;;0.40;21.10;;;;;;4934386;29;20211;-71
2022/03/13 05:17:29;;;;;;;23.50;21.23;;;0.50;20.80;;;;;;4934094;29;20447;-71
2022/03/13 05:19:55;;;;;;;25.70;21.53;;;0.50;20.70;;;;;;4934336;29;20515;-71
2022/03/13 05:22:21;;;;;;;24.10;21.85;;;0.60;20.50;;;;;;4936013;29;20412;-71
2022/03/13 05:24:47;;;;;;;28.10;22.20;;;0.40;21.30;;;;;;4937792;29;20197;-71
2022/03/13 05:27:13;;;;;;;22.50;20.20;;;0.40;21.70;;;;;;4937549;29;20180;-71
2022/03/13 05:29:38;;;;;;;27.70;24.63;;;0.60;21.40;;;;;;4936395;29;20521;-71
2022/03/13 05:32:04;;;;;;;27.40;24.80;;;0.60;21.10;;;;;;4937617;29;20241;-72
2022/03/13 05:34:30;;;;;;;25.60;23.10;;;0.40;21.30;;;;;;4937611;29;20216;-72
2022/03/13 05:36:55;;;;;;;24.77;21.97;;;0.30;22.40;;;;;;4937839;29;20436;-73
2022/03/13 05:39:21;;;;;;;28.00;25.03;;;0.40;22.60;;;;;;4937923;29;20666;-72
2022/03/13 05:41:48;;;;;;;25.03;22.63;;;0.40;22.10;;;;;;4937589;29;20191;-72
2022/03/13 05:44:14;;;;;;;24.88;22.48;;;0.40;22.30;;;;;;4937574;29;20191;-71
2022/03/13 05:46:40;;;;;;;25.58;23.27;;;0.60;21.90;;;;;;4937019;29;20192;-71
2022/03/13 05:49:08;;;;;;;26.45;22.65;;;0.60;21.40;;;;;;4937329;29;20582;-71
2022/03/13 05:51:36;;;;;;;23.92;20.58;;;0.60;21.50;;;;;;4937872;29;20257;-71
2022/03/13 05:54:03;;;;;;;23.83;21.73;;;0.70;21.50;;;;;;4937189;29;20310;-72
2022/03/13 05:56:28;;;;;;;24.70;22.05;;;0.70;21.60;;;;;;4937196;29;20257;-71
2022/03/13 05:58:54;;;;;;;24.53;22.07;;;0.80;21.60;;;;;;4936155;29;20292;-72
2022/03/13 06:01:19;;;;;;;23.17;21.00;;;1.10;20.70;;;;;;4937153;29;20212;-72
2022/03/13 06:03:45;;;;;;;26.10;22.30;;;1.10;20.50;;;;;;4937133;29;20248;-72
2022/03/13 06:06:11;;;;;;;22.00;20.07;;;1.10;20.30;;;;;;4937147;29;20686;-72
2022/03/13 06:08:37;;;;;;;23.00;20.80;;;1.20;20.40;;;;;;4936651;29;20221;-72
2022/03/13 06:11:03;;;;;;;22.50;20.17;;;1.20;20.10;;;;;;4937322;29;20216;-69
2022/03/13 06:13:29;;;;;;;24.17;21.75;;;1.40;19.70;;;;;;4936855;29;20927;-72
2022/03/13 06:15:55;;;;;;;23.30;21.13;;;1.40;19.90;;;;;;4935635;29;20275;-70
2022/03/13 06:18:21;;;;;;;26.15;23.73;;;1.40;19.90;;;;;;4936683;29;20776;-70
2022/03/13 06:20:46;;;;;;;21.17;19.27;;;1.50;20.30;;;;;;4935717;29;20220;-70
2022/03/13 06:23:13;;;;;;;22.30;20.33;;;1.60;20.20;;;;;;4935604;29;20178;-70
2022/03/13 06:25:40;;;;;;;24.42;22.15;;;1.80;20.10;;;;;;4935456;28;20651;-72
2022/03/13 06:28:06;;;;;;;24.55;21.65;;;1.90;19.90;;;;;;4936357;29;20296;-70
2022/03/13 06:30:31;;;;;;;23.00;20.90;;;1.90;20.10;;;;;;4936702;29;20273;-70
2022/03/13 06:32:57;;;;;;;23.03;20.63;;;2.10;20.10;;;;;;4935831;29;20178;-71
2022/03/13 06:35:24;;;;;;;23.43;21.00;;;2.30;20.30;;;;;;4936364;29;20213;-71
2022/03/13 06:37:53;;;;;;;22.15;19.92;;;2.50;19.80;;;;;;4936279;29;20538;-69
2022/03/13 06:40:20;;;;;;;22.73;20.52;;;2.80;18.80;;;;;;4935293;29;20190;-68
2022/03/13 06:42:47;;;;;;;23.55;21.42;;;3.20;19.10;;;;;;4936433;29;20201;-70
2022/03/13 06:45:13;;;;;;;26.25;23.65;;;3.70;18.40;;;;;;4942191;29;20286;-69
2022/03/13 06:47:41;;;;;;;23.90;21.60;;;4.10;16.90;;;;;;4955112;29;20678;-68
2022/03/13 06:50:08;;;;;;;24.15;22.35;;;4.70;16.30;;;;;;4955665;28;20171;-68
2022/03/13 06:52:34;;;;;;;23.45;21.27;;;5.10;15.70;;;;;;4955502;28;20574;-68
2022/03/13 06:55:00;;;;;;;23.05;21.45;;;5.40;14.40;;;;;;4970060;28;20207;-70
2022/03/13 06:57:26;;;;;;;26.33;23.90;;;5.50;13.20;;;;;;4955214;28;20183;-70
2022/03/13 06:59:51;;;;;;;23.97;22.17;;;5.50;12.90;;;;;;4955202;29;20432;-68
2022/03/13 07:02:17;;;;;;;29.00;26.23;;;5.40;12.70;;;;;;4955176;28;20668;-68
2022/03/13 07:04:42;;;;;;;25.37;23.30;;;5.30;12.50;;;;;;4970127;28;20190;-69
2022/03/13 07:07:08;;;;;;;23.60;21.70;;;5.30;13.00;;;;;;4954816;28;20179;-70
2022/03/13 07:09:34;;;;;;;25.60;23.47;;;5.20;13.10;;;;;;4969766;28;20249;-69
2022/03/13 07:12:00;;;;;;;24.67;22.63;;;5.20;13.10;;;;;;4955190;28;20185;-68
2022/03/13 07:14:26;;;;;;;26.80;24.58;;;5.10;12.70;;;;;;4953691;29;20386;-68
2022/03/13 07:16:52;;;;;;;24.47;22.23;;;5.10;13.10;;;;;;4969720;28;20179;-68
2022/03/13 07:19:17;;;;;;;23.80;21.67;;;5.00;13.40;;;;;;4954971;28;20563;-73
2022/03/13 07:21:45;;;;;;;25.93;23.57;;;5.00;13.20;;;;;;4955646;29;20615;-70
2022/03/13 07:24:11;;;;;;;25.25;22.95;;;4.80;13.30;;;;;;4955334;28;20241;-70
2022/03/13 07:26:37;;;;;;;26.27;23.40;;;4.70;13.70;;;;;;4948289;28;20182;-70
2022/03/13 07:29:02;;;;;;;24.93;23.00;;;4.60;14.10;;;;;;4968335;28;20523;-69
2022/03/13 07:31:30;;;;;;;23.50;21.10;;;4.70;13.80;;;;;;4956005;28;20178;-68
2022/03/13 07:33:56;;;;;;;24.50;22.30;;;4.80;12.40;;;;;;4938086;29;20290;-69
2022/03/13 07:36:21;;;;;;;25.98;23.40;;;4.50;12.30;;;;;;4935466;29;20186;-70
2022/03/13 07:38:47;;;;;;;26.23;23.50;;;4.60;12.60;;;;;;4935305;29;20198;-70
2022/03/13 07:41:13;;;;;;;26.87;24.27;;;4.70;12.70;;;;;;4935495;29;20186;-72
2022/03/13 07:43:38;;;;;;;24.17;21.87;;;4.80;12.40;;;;;;4935529;29;20194;-70
2022/03/13 07:46:05;;;;;;;23.93;21.93;;;4.90;12.10;;;;;;4935593;29;20199;-70
2022/03/13 07:48:34;;;;;;;25.17;22.83;;;4.90;11.80;;;;;;4933902;29;20202;-69
2022/03/13 07:51:01;;;;;;;23.60;21.90;;;5.00;12.10;;;;;;4935285;29;20242;-71
2022/03/13 07:53:28;;;;;;;25.75;23.65;;;5.20;11.70;;;;;;4934053;29;20183;-69
2022/03/13 07:55:54;;;;;;;26.38;23.83;;;5.30;10.60;;;;;;4935266;29;20186;-71
2022/03/13 07:58:20;;;;;;;24.50;22.65;;;5.40;10.70;;;;;;4934844;29;20666;-71
2022/03/13 08:00:45;;;;;;;24.43;22.60;;;5.50;11.90;;;;;;4935173;29;20183;-70
2022/03/13 08:03:17;;;;;;;25.17;23.00;;;5.60;11.50;;;;;;4935109;29;20430;-70
2022/03/13 08:05:43;;;;;;;24.58;22.48;;;5.80;10.40;;;;;;4935328;29;20183;-68
2022/03/13 08:08:08;;;;;;;24.60;21.53;;;5.90;9.50;;;;;;4933091;29;20220;-69
2022/03/13 08:10:34;;;;;;;25.23;23.07;;;6.00;9.80;;;;;;4935027;29;20218;-68
2022/03/13 08:13:00;;;;;;;25.20;22.87;;;5.90;9.70;;;;;;4933742;29;20178;-69
2022/03/13 08:15:25;;;;;;;23.80;21.60;;;6.00;9.60;;;;;;4934719;29;20208;-67
2022/03/13 08:17:51;;;;;;;24.00;21.70;;;6.20;10.60;;;;;;4949172;29;20240;-68
2022/03/13 08:20:16;;;;;;;26.00;23.77;;;6.40;9.60;;;;;;4949558;29;20195;-68
2022/03/13 08:22:42;;;;;;;23.80;21.93;;;6.40;9.40;;;;;;4934707;29;20216;-68
2022/03/13 08:25:08;;;;;;;26.57;24.20;;;6.40;8.80;;;;;;4939012;28;20272;-68
2022/03/13 08:27:34;;;;;;;23.27;21.57;;;6.60;9.90;;;;;;4953110;28;20192;-70
2022/03/13 08:30:01;;;;;;;24.33;21.93;;;6.90;9.00;;;;;;4953934;28;20467;-71
2022/03/13 08:32:27;;;;;;;25.13;22.98;;;7.10;8.60;;;;;;4953650;28;20564;-71
2022/03/13 08:34:52;;;;;;;27.50;24.93;;;7.20;8.70;;;;;;4953765;28;20622;-70
2022/03/13 08:37:18;;;;;;;24.70;22.40;;;7.20;7.80;;;;;;4953559;29;20475;-70
2022/03/13 08:39:44;;;;;;;24.87;22.80;;;7.30;8.70;;;;;;4953853;29;20608;-71
2022/03/13 08:42:10;;;;;;;23.73;21.53;;;7.50;7.20;;;;;;4953771;28;20212;-71
2022/03/13 08:44:35;;;;;;;23.70;21.23;;;7.50;7.20;;;;;;4953371;29;20525;-70
2022/03/13 08:47:01;;;;;;;25.03;22.57;;;7.60;7.70;;;;;;4953001;29;20946;-70
2022/03/13 08:49:27;;;;;;;26.63;24.07;;;7.70;6.60;;;;;;4953624;28;20255;-71
2022/03/13 08:51:54;;;;;;;24.07;22.10;;;7.90;6.20;;;;;;4953596;28;20421;-69
2022/03/13 08:54:20;;;;;;;24.80;22.30;;;7.90;6.70;;;;;;4953494;28;20543;-70
2022/03/13 08:56:49;;;;;;;22.97;21.20;;;8.00;6.40;;;;;;4954200;28;20420;-70
2022/03/13 08:59:21;;;;;;;23.90;22.20;;;8.10;5.80;;;;;;4957405;28;20432;-70
2022/03/13 09:01:47;;;;;;;22.87;21.23;;;8.20;5.40;;;;;;4957362;29;20426;-71
2022/03/13 09:04:13;;;;;;;25.57;23.17;;;8.30;5.30;;;;;;4957449;28;20421;-70
2022/03/13 09:06:39;;;;;;;24.53;22.17;;;8.50;6.20;;;;;;4957139;29;20775;-70
2022/03/13 09:09:06;;;;;;;23.23;21.50;;;8.60;5.00;;;;;;4957365;28;20210;-70
2022/03/13 09:11:33;;;;;;;23.87;21.97;;;8.50;5.30;;;;;;4957734;28;20512;-69
2022/03/13 09:13:59;;;;;;;21.47;19.87;;;8.60;5.80;;;;;;4957319;28;20465;-69
2022/03/13 09:16:26;;;;;;;24.00;21.80;;;8.80;5.20;;;;;;4957259;29;20421;-69
2022/03/13 09:18:52;;;;;;;24.17;22.27;;;8.90;5.20;;;;;;4954802;28;20257;-71
2022/03/13 09:21:18;;;;;;;25.80;23.50;;;9.10;5.40;;;;;;4948982;29;20434;-71
2022/03/13 09:23:44;;;;;;;23.93;22.23;;;9.20;5.40;;;;;;4933852;29;20426;-71
2022/03/13 09:26:09;;;;;;;24.57;22.70;;;9.20;5.10;;;;;;4942196;29;20628;-72
2022/03/13 09:28:35;;;;;;;24.43;22.13;;;9.40;5.10;;;;;;4953104;29;20197;-71
2022/03/13 09:31:01;;;;;;;22.53;20.97;;;9.60;6.10;;;;;;4953291;28;20188;-71
2022/03/13 09:33:27;;;;;;;21.70;20.30;;;9.70;4.80;;;;;;4953572;28;20205;-72
2022/03/13 09:35:53;;;;;;;24.17;22.20;;;9.80;5.10;;;;;;4953783;28;20479;-71
2022/03/13 09:38:19;;;;;;;24.40;22.57;;;10.00;4.30;;;;;;4952640;28;20445;-71
2022/03/13 09:40:44;;;;;;;26.43;24.17;;;10.00;3.40;;;;;;4952901;29;20451;-69
2022/03/13 09:43:10;;;;;;;26.30;23.80;;;10.10;4.10;;;;;;4953016;28;20192;-71
2022/03/13 09:45:36;;;;;;;23.30;21.70;;;10.20;3.50;;;;;;4952554;28;20247;-71
2022/03/13 09:48:03;;;;;;;23.30;21.30;;;10.40;3.70;;;;;;4952771;29;20267;-72
2022/03/13 09:50:29;;;;;;;23.67;21.83;;;10.50;3.90;;;;;;4953212;29;20395;-74
2022/03/13 09:52:55;;;;;;;23.37;21.53;;;10.60;4.30;;;;;;4953553;28;20441;-72
2022/03/13 09:55:20;;;;;;;23.60;21.83;;;10.70;3.70;;;;;;4952950;29;20606;-74
2022/03/13 09:57:48;;;;;;;24.97;23.13;;;10.90;3.70;;;;;;4952226;28;20766;-72
2022/03/13 10:00:16;;;;;;;26.00;24.10;;;11.00;3.50;;;;;;4951908;28;20263;-72
2022/03/13 10:02:43;;;;;;;26.67;23.83;;;11.10;2.80;;;;;;4952491;29;20423;-73
2022/03/13 10:05:14;;;;;;;25.67;23.80;;;11.20;3.30;;;;;;4953241;29;20469;-72
2022/03/13 10:07:49;;;;;;;25.63;23.60;;;11.30;3.40;;;;;;4950463;28;20433;-72
2022/03/13 10:10:15;;;;;;;26.50;23.90;;;11.40;2.30;;;;;;4951937;28;21273;-72
2022/03/13 10:12:41;;;;;;;24.37;22.43;;;11.40;2.80;;;;;;4952072;29;20429;-71
2022/03/13 10:15:07;;;;;;;26.50;24.60;;;11.60;3.10;;;;;;4952743;28;20280;-71
2022/03/13 10:17:36;;;;;;;26.50;24.00;;;11.70;2.70;;;;;;4950787;29;20939;-71
2022/03/13 10:20:11;;;;;;;24.63;22.63;;;11.80;2.70;;;;;;4950773;28;20436;-72
2022/03/13 10:22:38;;;;;;;25.70;23.10;;;12.00;2.50;;;;;;4951860;29;20432;-69
2022/03/13 10:25:05;;;;;;;24.50;22.70;;;12.20;2.20;;;;;;4951974;28;20488;-71
2022/03/13 10:27:33;;;;;;;23.30;21.10;;;12.20;2.20;;;;;;4952196;28;20468;-69
2022/03/13 10:30:03;;;;;;;25.77;23.13;;;12.30;2.30;;;;;;4951646;29;20533;-68
2022/03/13 10:32:29;;;;;;;24.20;22.30;;;12.50;1.00;;;;;;4950416;29;20438;-69
2022/03/13 10:34:58;;;;;;;23.00;21.27;;;12.40;1.00;;;;;;4946477;28;20790;-69
2022/03/13 10:37:43;;;;;;;22.47;20.83;;;12.40;1.00;;;;;;4954257;29;20202;-69
2022/03/13 10:40:23;;;;;;;22.03;20.17;;;12.30;1.00;;;;;;4955663;29;20425;-68
2022/03/13 10:42:50;;;;;;;23.00;21.40;;;12.40;1.00;;;;;;4955885;28;20421;-68
2022/03/13 10:45:37;;;;;;;21.93;20.47;;;12.50;1.00;;;;;;4956010;29;20425;-68
2022/03/13 10:48:23;;;;;;;22.47;20.67;;;12.70;1.00;;;;;;4955018;29;20452;-69
2022/03/13 10:50:52;;;;;;;22.60;20.63;;;12.70;1.00;;;;;;4951460;28;20812;-68
2022/03/13 10:53:22;;;;;;;23.23;21.23;;;12.50;1.00;;;;;;4955771;28;20490;-69
2022/03/13 10:56:02;;;;;;;23.20;21.50;;;12.40;1.00;;;;;;4936451;29;20539;-69
2022/03/13 10:58:29;;;;;;;24.20;21.50;;;12.50;1.00;;;;;;4935410;29;20449;-69
2022/03/13 11:01:05;;;;;;;22.70;21.00;;;12.60;1.00;;;;;;4934666;29;20475;-69
2022/03/13 11:03:32;;;;;;;22.90;21.20;;;12.70;1.00;;;;;;4934700;29;20468;-69
2022/03/13 11:05:58;;;;;;;23.80;22.00;;;12.80;1.00;;;;;;4935920;29;20763;-69
2022/03/13 11:08:25;;;;;;;23.93;21.63;;;12.90;1.00;;;;;;4953215;29;20468;-69
2022/03/13 11:10:51;;;;;;;21.47;19.97;;;13.00;1.00;;;;;;4950331;29;20202;-69
2022/03/13 11:13:20;;;;;;;25.63;23.50;;;13.10;1.00;;;;;;4955113;28;20428;-69
2022/03/13 11:15:47;;;;;;;22.10;20.63;;;12.80;1.00;;;;;;4954909;28;20861;-71
2022/03/13 11:18:17;;;;;;;26.43;24.07;;;12.90;1.00;;;;;;4954114;28;20453;-68
2022/03/13 11:20:43;;;;;;;22.60;20.80;;;13.10;1.00;;;;;;4954331;28;20418;-68
2022/03/13 11:23:09;;;;;;;23.83;21.80;;;13.20;1.00;;;;;;4954831;28;20424;-68
2022/03/13 11:25:38;;;;;;;23.23;20.93;;;13.40;1.00;;;;;;4952760;28;20971;-68
2022/03/13 11:28:05;;;;;;;24.20;22.50;;;13.60;1.00;;;;;;4954284;29;20459;-68
2022/03/13 11:30:36;;;;;;;21.80;20.20;;;13.60;1.00;;;;;;4954537;28;20442;-69
2022/03/13 11:33:03;;;;;;;21.90;20.47;;;13.70;1.00;;;;;;4954311;28;20431;-68
2022/03/13 11:35:32;;;;;;;22.67;21.10;;;13.80;1.00;;;;;;4954151;28;20474;-68
2022/03/13 11:38:00;;;;;;;25.43;23.37;;;14.00;1.00;;;;;;4953880;28;20537;-68
2022/03/13 11:40:35;;;;;;;24.00;22.13;;;14.00;1.00;;;;;;4950263;28;20846;-68
2022/03/13 11:43:15;;;;;;;24.50;22.57;;;13.90;1.00;;;;;;4934331;29;20870;-68
2022/03/13 11:46:01;;;;;;;24.43;22.50;;;14.10;1.00;;;;;;4939467;29;20435;-68
2022/03/13 11:48:33;;;;;;;23.23;21.63;;;14.20;1.00;;;;;;4953306;28;20822;-68
2022/03/13 11:51:02;;;;;;;27.00;24.63;;;14.30;1.00;;;;;;4954177;29;20869;-69
2022/03/13 11:53:44;;;;;;;27.50;25.20;;;14.40;1.00;;;;;;4952400;28;20966;-69
2022/03/13 11:56:10;;;;;;;24.67;22.50;;;14.60;1.00;;;;;;4953728;28;20429;-68
2022/03/13 11:58:47;;;;;;;25.43;23.27;;;14.70;1.00;;;;;;4953722;29;20475;-70
2022/03/13 12:01:21;;;;;;;25.43;23.20;;;14.70;1.00;;;;;;4954062;29;20433;-69
2022/03/13 12:04:02;;;;;;;24.10;22.30;;;14.60;1.00;;;;;;4953722;28;20427;-70
2022/03/13 12:06:46;;;;;;;26.30;23.70;;;14.50;1.00;;;;;;4951836;29;20461;-68
2022/03/13 12:09:13;;;;;;;25.20;23.13;;;14.40;1.00;;;;;;4952499;29;20495;-69
2022/03/13 12:11:41;;;;;;;26.77;24.40;;;14.60;1.00;;;;;;4952518;28;20513;-68
2022/03/13 12:14:11;;;;;;;25.27;23.30;;;14.60;1.00;;;;;;4953855;28;20463;-68
2022/03/13 12:16:37;;;;;;;23.77;21.93;;;14.60;1.00;;;;;;4953514;28;20435;-68
2022/03/13 12:19:04;;;;;;;26.30;24.10;;;14.70;1.00;;;;;;4953750;28;20493;-68
2022/03/13 12:21:31;;;;;;;25.70;23.77;;;14.60;1.00;;;;;;4953640;28;20434;-68
2022/03/13 12:24:13;;;;;;;28.63;25.60;;;14.60;1.00;;;;;;4953972;28;20958;-68
2022/03/13 12:26:39;;;;;;;27.57;24.83;;;14.60;1.00;;;;;;4953660;28;20515;-68
2022/03/13 12:29:07;;;;;;;26.90;24.00;;;14.80;1.00;;;;;;4962437;28;20965;-68
2022/03/13 12:31:48;;;;;;;26.20;23.90;;;14.70;1.00;;;;;;4953014;28;20752;-68
2022/03/13 12:34:13;;;;;;;23.97;22.13;;;14.80;1.00;;;;;;4953871;28;20457;-69
2022/03/13 12:36:41;;;;;;;26.53;24.07;;;14.90;1.00;;;;;;4953744;29;20411;-69
2022/03/13 12:39:14;;;;;;;25.47;23.00;;;14.90;1.00;;;;;;4952659;29;20674;-68
2022/03/13 12:41:42;;;;;;;24.40;22.37;;;14.90;1.00;;;;;;4953879;28;20463;-68